Time;durP1;ratioP1;P1;durP2;ratioP2;P2;SDS_P1;SDS_P2;PMS_P1;PMS_P2;Temp;Humidity;BMP_temperature;BMP_pressure;BME280_temperature;BME280_humidity;BME280_pressure;Samples;Min_cycle;Max_cycle;Signal;HPM_P1;HPM_P2
2023/11/19 00:02:39;;;;;;;1.50;0.90;;;6.00;99.90;;;;;;4928388;29;20040;-79
2023/11/19 00:05:25;;;;;;;1.15;0.85;;;6.10;99.90;;;;;;4945049;28;20038;-78
2023/11/19 00:08:11;;;;;;;1.33;0.90;;;6.00;99.90;;;;;;4939104;28;20039;-78
2023/11/19 00:10:58;;;;;;;1.40;0.93;;;6.10;99.90;;;;;;4935703;29;20126;-79
2023/11/19 00:13:44;;;;;;;2.25;1.13;;;6.00;99.90;;;;;;4900640;29;20376;-79
2023/11/19 00:16:32;;;;;;;2.28;1.00;;;6.10;99.90;;;;;;4927783;29;20368;-79
2023/11/19 00:19:19;;;;;;;1.70;0.90;;;6.10;99.90;;;;;;4953424;29;20036;-79
2023/11/19 00:22:05;;;;;;;1.77;1.08;;;6.10;99.90;;;;;;4944805;29;20093;-79
2023/11/19 00:24:51;;;;;;;1.60;1.08;;;6.10;99.90;;;;;;4931814;29;20061;-79
2023/11/19 00:27:37;;;;;;;1.77;0.70;;;6.00;99.90;;;;;;4913075;29;20130;-79
2023/11/19 00:30:25;;;;;;;2.17;0.73;;;6.10;99.90;;;;;;4927084;29;20189;-79
2023/11/19 00:33:11;;;;;;;0.98;0.80;;;6.10;99.90;;;;;;4920140;29;20048;-79
2023/11/19 00:35:57;;;;;;;2.10;1.00;;;6.10;99.90;;;;;;4925962;29;20055;-79
2023/11/19 00:38:44;;;;;;;1.10;0.70;;;6.10;99.90;;;;;;4927202;29;20095;-79
2023/11/19 00:41:30;;;;;;;1.08;0.70;;;6.10;99.90;;;;;;4941450;28;20097;-79
2023/11/19 00:44:16;;;;;;;1.10;0.77;;;6.10;99.90;;;;;;4939249;28;20062;-79
2023/11/19 00:47:03;;;;;;;1.25;0.80;;;6.20;99.90;;;;;;4948405;28;20046;-79
2023/11/19 00:49:51;;;;;;;;;;;6.20;99.90;;;;;;4930283;29;20468;-79
2023/11/19 00:52:37;;;;;;;6.78;2.70;;;6.10;99.90;;;;;;4960965;29;19957;-78
2023/11/19 00:55:24;;;;;;;2.28;1.00;;;6.20;99.90;;;;;;4931518;29;20488;-79
2023/11/19 00:58:10;;;;;;;2.03;1.00;;;6.20;99.90;;;;;;4946541;29;20035;-79
2023/11/19 01:00:57;;;;;;;2.13;1.20;;;6.20;99.90;;;;;;4922843;28;20089;-79
2023/11/19 01:03:44;;;;;;;1.05;0.70;;;6.20;99.90;;;;;;4935630;28;20495;-78
2023/11/19 01:06:30;;;;;;;1.63;0.85;;;6.30;99.90;;;;;;4938438;28;20054;-79
2023/11/19 01:09:16;;;;;;;0.65;0.50;;;6.30;99.90;;;;;;4935111;29;20054;-79
2023/11/19 01:12:03;;;;;;;1.88;0.90;;;6.30;99.90;;;;;;4925830;28;20039;-78
2023/11/19 01:14:50;;;;;;;0.68;0.50;;;6.40;99.90;;;;;;4938990;28;20058;-78
2023/11/19 01:17:39;;;;;;;1.52;0.45;;;6.40;99.90;;;;;;4919975;29;20039;-78
2023/11/19 01:20:26;;;;;;;1.10;0.60;;;6.40;99.90;;;;;;4927148;29;20499;-79
2023/11/19 01:23:12;;;;;;;0.68;0.60;;;6.40;99.90;;;;;;4949880;28;20120;-79
2023/11/19 01:25:58;;;;;;;1.10;0.60;;;6.40;99.90;;;;;;4903623;29;20071;-79
2023/11/19 01:28:44;;;;;;;0.98;0.60;;;6.40;99.90;;;;;;4913893;29;20059;-79
2023/11/19 01:31:33;;;;;;;0.75;0.50;;;6.40;99.90;;;;;;4940191;29;20035;-79
2023/11/19 01:34:21;;;;;;;1.20;0.60;;;6.40;99.90;;;;;;4918558;29;20198;-79
2023/11/19 01:37:10;;;;;;;0.93;0.50;;;6.40;99.90;;;;;;4930853;29;20035;-79
2023/11/19 01:39:56;;;;;;;1.00;0.40;;;6.40;99.90;;;;;;4929014;28;20061;-79
2023/11/19 01:42:43;;;;;;;0.60;0.43;;;6.40;99.90;;;;;;4937992;28;20034;-79
2023/11/19 01:45:30;;;;;;;1.00;0.50;;;6.40;99.90;;;;;;4919819;29;20486;-79
2023/11/19 01:48:19;;;;;;;0.93;0.50;;;6.50;99.90;;;;;;4925908;29;20569;-79
2023/11/19 01:51:05;;;;;;;0.73;0.50;;;6.40;99.90;;;;;;4906061;29;20043;-78
2023/11/19 01:53:51;;;;;;;0.52;0.40;;;6.50;99.90;;;;;;4922398;29;20039;-79
2023/11/19 01:56:40;;;;;;;0.80;0.47;;;6.50;99.90;;;;;;4912245;29;20077;-79
2023/11/19 01:59:27;;;;;;;0.88;0.55;;;6.50;99.90;;;;;;4929052;29;20050;-79
2023/11/19 02:02:13;;;;;;;1.23;0.70;;;6.50;99.90;;;;;;4917957;29;20102;-79
2023/11/19 02:05:00;;;;;;;0.60;0.40;;;6.60;99.90;;;;;;4918054;29;20058;-79
2023/11/19 02:07:46;;;;;;;0.40;0.40;;;6.60;99.90;;;;;;4918295;29;20483;-78
2023/11/19 02:10:33;;;;;;;0.30;0.30;;;6.60;99.90;;;;;;4919879;29;20058;-79
2023/11/19 02:13:19;;;;;;;1.90;0.60;;;6.70;99.90;;;;;;4915589;29;20468;-80
2023/11/19 02:16:06;;;;;;;2.63;0.60;;;6.70;99.90;;;;;;4924622;29;20032;-79
2023/11/19 02:18:52;;;;;;;1.60;0.73;;;6.80;99.90;;;;;;4904591;29;20418;-79
2023/11/19 02:21:38;;;;;;;0.52;0.52;;;6.80;99.90;;;;;;4925245;29;20280;-79
2023/11/19 02:24:25;;;;;;;0.68;0.60;;;6.80;99.90;;;;;;4946157;28;20369;-79
2023/11/19 02:27:16;;;;;;;1.20;0.75;;;6.90;99.90;;;;;;4931751;28;20058;-79
2023/11/19 02:30:06;;;;;;;1.92;0.57;;;7.00;99.90;;;;;;4956117;28;20435;-80
2023/11/19 02:32:54;;;;;;;0.82;0.60;;;7.10;99.90;;;;;;4917536;29;20496;-79
2023/11/19 02:35:40;;;;;;;0.93;0.68;;;7.20;99.90;;;;;;4919632;29;20054;-78
2023/11/19 02:38:26;;;;;;;0.95;0.52;;;7.30;99.90;;;;;;4917962;29;20047;-79
2023/11/19 02:41:14;;;;;;;4.20;0.88;;;7.40;99.90;;;;;;4922352;29;20342;-79
2023/11/19 02:44:01;;;;;;;1.67;0.63;;;7.50;99.90;;;;;;4930736;28;20049;-78
2023/11/19 02:46:48;;;;;;;1.47;0.70;;;7.60;99.90;;;;;;4937897;28;20568;-78
2023/11/19 02:49:35;;;;;;;0.80;0.70;;;7.70;99.90;;;;;;4963082;28;20042;-78
2023/11/19 02:52:24;;;;;;;0.68;0.57;;;7.80;99.90;;;;;;4948487;28;20340;-79
2023/11/19 02:55:12;;;;;;;1.65;0.70;;;7.80;99.90;;;;;;4942777;29;20047;-78
2023/11/19 02:57:59;;;;;;;1.55;0.88;;;7.90;99.90;;;;;;4945451;28;20061;-78
2023/11/19 03:00:57;;;;;;;0.77;0.57;;;8.00;99.90;;;;;;4936300;28;20051;-78
2023/11/19 03:03:49;;;;;;;2.17;0.83;;;8.00;99.90;;;;;;4933980;28;20475;-78
2023/11/19 03:06:36;;;;;;;1.52;0.70;;;8.00;99.90;;;;;;4931193;29;20809;-78
2023/11/19 03:09:24;;;;;;;2.60;1.10;;;8.10;99.90;;;;;;4930570;29;20074;-79
2023/11/19 03:12:10;;;;;;;0.95;0.68;;;8.00;99.90;;;;;;4935296;29;20098;-78
2023/11/19 03:14:56;;;;;;;0.80;0.70;;;8.10;99.90;;;;;;4899220;29;20044;-78
2023/11/19 03:17:44;;;;;;;1.75;0.70;;;8.10;99.90;;;;;;4903407;28;20046;-78
2023/11/19 03:20:31;;;;;;;0.73;0.50;;;8.10;99.90;;;;;;4928449;29;20035;-78
2023/11/19 03:23:18;;;;;;;1.15;0.60;;;8.20;99.90;;;;;;4927644;29;20091;-79
2023/11/19 03:26:05;;;;;;;0.88;0.63;;;8.20;99.90;;;;;;4920539;28;20061;-78
2023/11/19 03:28:51;;;;;;;5.88;0.63;;;8.20;99.90;;;;;;4940285;29;20122;-78
2023/11/19 03:31:42;;;;;;;1.58;0.82;;;8.20;99.90;;;;;;4923871;29;20074;-78
2023/11/19 03:34:28;;;;;;;1.17;0.70;;;8.20;99.90;;;;;;4932983;28;20039;-78
2023/11/19 03:37:17;;;;;;;1.58;0.82;;;8.20;99.90;;;;;;4938862;28;20447;-79
2023/11/19 03:40:05;;;;;;;3.58;0.93;;;8.30;99.90;;;;;;4941589;28;20062;-79
2023/11/19 03:42:52;;;;;;;3.60;1.20;;;8.30;99.90;;;;;;4943218;29;20061;-78
2023/11/19 03:45:38;;;;;;;2.72;1.40;;;8.30;99.90;;;;;;4897405;29;20099;-78
2023/11/19 03:48:24;;;;;;;4.47;1.80;;;8.30;99.90;;;;;;4946933;28;20181;-78
2023/11/19 03:51:15;;;;;;;2.72;1.42;;;8.40;99.90;;;;;;4927849;29;20039;-79
2023/11/19 03:54:02;;;;;;;5.07;1.95;;;8.30;99.90;;;;;;4918141;29;20071;-79
2023/11/19 03:56:48;;;;;;;2.83;1.33;;;8.40;99.90;;;;;;4942195;28;20050;-79
2023/11/19 03:59:34;;;;;;;3.85;1.60;;;8.40;99.90;;;;;;4929573;28;20035;-78
2023/11/19 04:02:22;;;;;;;5.40;1.80;;;8.40;99.90;;;;;;4940470;29;20039;-78
2023/11/19 04:05:09;;;;;;;4.55;2.05;;;8.40;99.90;;;;;;4925640;29;20473;-78
2023/11/19 04:07:56;;;;;;;4.22;1.83;;;8.50;99.90;;;;;;4921166;29;20539;-78
2023/11/19 04:10:44;;;;;;;3.60;2.40;;;8.50;99.90;;;;;;4925740;29;20082;-78
2023/11/19 04:13:30;;;;;;;7.05;2.00;;;8.50;99.90;;;;;;4923363;29;20070;-78
2023/11/19 04:16:17;;;;;;;4.32;1.90;;;8.60;99.90;;;;;;4928400;29;20040;-79
2023/11/19 04:19:04;;;;;;;3.70;1.50;;;8.60;99.90;;;;;;4942929;29;20035;-79
2023/11/19 04:21:50;;;;;;;4.13;1.70;;;8.70;99.90;;;;;;4918397;29;20051;-78
2023/11/19 04:24:38;;;;;;;3.70;1.45;;;8.70;99.90;;;;;;4947818;28;20110;-78
2023/11/19 04:27:24;;;;;;;1.75;1.20;;;8.80;99.90;;;;;;4964220;28;20035;-79
2023/11/19 04:30:10;;;;;;;2.95;0.90;;;8.90;99.90;;;;;;4946573;29;20090;-79
2023/11/19 04:32:56;;;;;;;1.90;0.75;;;8.90;99.90;;;;;;4923566;29;20032;-78
2023/11/19 04:35:42;;;;;;;1.88;0.80;;;9.00;99.90;;;;;;4937975;29;20063;-79
2023/11/19 04:38:28;;;;;;;4.40;1.00;;;9.00;99.90;;;;;;4917020;29;20531;-79
2023/11/19 04:41:14;;;;;;;1.60;0.88;;;9.00;99.90;;;;;;4933120;28;20517;-78
2023/11/19 04:44:02;;;;;;;1.92;1.10;;;9.00;99.90;;;;;;4942591;29;20050;-79
2023/11/19 04:46:49;;;;;;;2.10;0.98;;;9.00;99.90;;;;;;4944026;29;20043;-78
2023/11/19 04:49:35;;;;;;;3.15;1.20;;;9.10;99.90;;;;;;4920747;29;20035;-78
2023/11/19 04:52:23;;;;;;;2.78;1.48;;;9.10;99.90;;;;;;4935999;28;20404;-79
2023/11/19 04:55:11;;;;;;;1.83;1.35;;;9.10;99.90;;;;;;4913795;29;20050;-79
2023/11/19 04:57:57;;;;;;;2.28;1.52;;;9.20;99.90;;;;;;4926758;29;20147;-78
2023/11/19 05:00:43;;;;;;;2.60;1.42;;;9.20;99.90;;;;;;4938831;29;20089;-78
2023/11/19 05:03:31;;;;;;;2.58;1.55;;;9.20;99.90;;;;;;4930217;29;20487;-78
2023/11/19 05:06:18;;;;;;;3.95;1.60;;;9.20;99.90;;;;;;4930187;29;20044;-79
2023/11/19 05:09:07;;;;;;;2.70;1.67;;;9.20;99.90;;;;;;4908971;28;20412;-78
2023/11/19 05:11:53;;;;;;;3.75;2.00;;;9.30;99.90;;;;;;4936513;29;20039;-78
2023/11/19 05:14:39;;;;;;;3.13;1.88;;;9.30;99.90;;;;;;4936495;29;20484;-79
2023/11/19 05:17:25;;;;;;;3.42;1.83;;;9.30;99.90;;;;;;4941485;28;20099;-78
2023/11/19 05:20:13;;;;;;;3.13;1.80;;;9.30;99.90;;;;;;4934711;28;20027;-78
2023/11/19 05:23:00;;;;;;;3.08;1.80;;;9.40;99.90;;;;;;4925560;28;20139;-78
2023/11/19 05:25:47;;;;;;;5.33;2.33;;;9.40;99.90;;;;;;4938773;28;20035;-78
2023/11/19 05:28:34;;;;;;;4.13;1.98;;;9.40;99.90;;;;;;4954942;28;20364;-78
2023/11/19 05:31:21;;;;;;;2.80;1.73;;;9.40;99.90;;;;;;4949112;28;20039;-79
2023/11/19 05:34:07;;;;;;;3.13;1.80;;;9.40;99.90;;;;;;4933579;28;20392;-79
2023/11/19 05:36:53;;;;;;;4.30;2.10;;;9.40;99.90;;;;;;4921914;29;20036;-78
2023/11/19 05:39:41;;;;;;;4.47;2.00;;;9.40;99.90;;;;;;4899833;29;20583;-79
2023/11/19 05:42:27;;;;;;;2.67;1.63;;;9.40;99.90;;;;;;4927231;29;20048;-80
2023/11/19 05:45:13;;;;;;;2.78;1.40;;;9.50;99.90;;;;;;4943939;29;20087;-79
2023/11/19 05:47:59;;;;;;;4.07;1.50;;;9.50;99.90;;;;;;4931313;29;20115;-78
2023/11/19 05:50:46;;;;;;;2.55;1.48;;;9.50;99.90;;;;;;4924561;29;20047;-78
2023/11/19 05:53:32;;;;;;;3.50;1.50;;;9.50;99.90;;;;;;4941239;29;20134;-78
2023/11/19 05:56:21;;;;;;;3.67;1.48;;;9.50;99.90;;;;;;4941645;29;20040;-78
2023/11/19 05:59:14;;;;;;;1.77;1.15;;;9.50;99.90;;;;;;4949001;29;20067;-78
2023/11/19 06:02:02;;;;;;;4.95;1.38;;;9.50;99.90;;;;;;4930356;29;20057;-78
2023/11/19 06:04:49;;;;;;;3.17;1.70;;;9.40;99.90;;;;;;4930942;29;20089;-78
2023/11/19 06:07:36;;;;;;;2.95;1.38;;;9.50;99.90;;;;;;4942988;29;20043;-78
2023/11/19 06:10:30;;;;;;;4.88;1.77;;;9.40;99.90;;;;;;4927754;29;20106;-78
2023/11/19 06:13:16;;;;;;;2.47;1.40;;;9.40;99.90;;;;;;4955326;28;20471;-78
2023/11/19 06:16:02;;;;;;;4.97;1.60;;;9.50;99.90;;;;;;4941712;29;20039;-79
2023/11/19 06:18:50;;;;;;;4.68;1.52;;;9.50;99.90;;;;;;4917898;28;20043;-78
2023/11/19 06:21:37;;;;;;;4.03;1.75;;;9.50;99.90;;;;;;4931147;28;20376;-79
2023/11/19 06:24:24;;;;;;;4.72;1.83;;;9.50;99.90;;;;;;4943758;29;20046;-79
2023/11/19 06:27:11;;;;;;;4.13;1.80;;;9.50;99.90;;;;;;4928273;29;20135;-78
2023/11/19 06:29:57;;;;;;;4.40;1.52;;;9.50;99.90;;;;;;4930387;29;20232;-79
2023/11/19 06:32:43;;;;;;;4.50;1.73;;;9.50;99.90;;;;;;4919959;28;20049;-78
2023/11/19 06:35:35;;;;;;;4.28;1.85;;;9.50;99.90;;;;;;4936617;29;20051;-78
2023/11/19 06:38:23;;;;;;;6.10;2.10;;;9.60;99.90;;;;;;4937466;29;20036;-78
2023/11/19 06:41:09;;;;;;;4.80;2.42;;;9.60;99.90;;;;;;4923722;29;20114;-78
2023/11/19 06:43:57;;;;;;;8.73;2.25;;;9.60;99.90;;;;;;4916127;29;20053;-78
2023/11/19 06:46:43;;;;;;;7.35;2.88;;;9.70;99.90;;;;;;4931380;29;20039;-77
2023/11/19 06:49:29;;;;;;;6.93;2.95;;;9.70;99.90;;;;;;4939721;29;20054;-78
2023/11/19 06:52:16;;;;;;;12.95;2.83;;;9.70;99.90;;;;;;4920219;28;20452;-78
2023/11/19 06:55:04;;;;;;;6.82;1.90;;;9.80;99.90;;;;;;4916579;29;20075;-78
2023/11/19 06:57:50;;;;;;;8.40;2.17;;;9.80;99.90;;;;;;4937626;28;20035;-78
2023/11/19 07:00:36;;;;;;;8.18;2.70;;;9.80;99.90;;;;;;4945141;28;20502;-78
2023/11/19 07:03:24;;;;;;;8.15;2.40;;;9.80;99.90;;;;;;4918237;29;20507;-77
2023/11/19 07:06:10;;;;;;;11.30;2.55;;;9.90;99.90;;;;;;4943577;28;20479;-78
2023/11/19 07:08:58;;;;;;;6.93;2.42;;;9.90;99.90;;;;;;4941805;28;20544;-77
2023/11/19 07:11:45;;;;;;;7.40;2.45;;;9.90;99.90;;;;;;4930284;29;20488;-77
2023/11/19 07:14:31;;;;;;;12.53;3.07;;;9.90;99.90;;;;;;4924257;29;20048;-78
2023/11/19 07:17:18;;;;;;;7.32;2.95;;;9.90;99.90;;;;;;4910652;29;20307;-78
2023/11/19 07:20:05;;;;;;;14.18;3.70;;;9.90;99.90;;;;;;4925317;29;20071;-78
2023/11/19 07:22:54;;;;;;;8.43;2.55;;;9.90;99.90;;;;;;4937363;28;20499;-78
2023/11/19 07:25:41;;;;;;;7.88;2.47;;;9.90;99.90;;;;;;4917346;29;20043;-79
2023/11/19 07:28:28;;;;;;;7.63;2.70;;;9.90;99.90;;;;;;4928475;29;20070;-79
2023/11/19 07:31:14;;;;;;;7.57;2.72;;;9.90;99.90;;;;;;4956809;28;20053;-79
2023/11/19 07:34:02;;;;;;;6.07;2.60;;;9.90;99.90;;;;;;4956045;29;20043;-78
2023/11/19 07:36:48;;;;;;;10.20;2.63;;;9.90;99.90;;;;;;4947736;29;20051;-78
2023/11/19 07:39:36;;;;;;;6.78;2.60;;;9.90;99.90;;;;;;4949504;28;20066;-78
2023/11/19 07:42:23;;;;;;;10.70;3.22;;;9.90;99.90;;;;;;4925280;29;20050;-78
2023/11/19 07:45:09;;;;;;;9.98;2.50;;;9.90;99.90;;;;;;4924399;29;20167;-79
2023/11/19 07:47:57;;;;;;;10.93;3.53;;;10.00;99.90;;;;;;4956168;28;20043;-78
2023/11/19 07:50:43;;;;;;;8.25;2.42;;;10.00;99.90;;;;;;4965820;28;20054;-79
2023/11/19 07:53:29;;;;;;;10.00;3.10;;;10.00;99.90;;;;;;4908480;28;20074;-78
2023/11/19 07:56:15;;;;;;;13.43;3.33;;;10.00;99.90;;;;;;4933661;29;20035;-79
2023/11/19 07:59:03;;;;;;;11.52;2.97;;;10.10;99.90;;;;;;4945898;29;20746;-78
2023/11/19 08:01:49;;;;;;;15.48;3.28;;;10.10;99.90;;;;;;4937019;29;20661;-79
2023/11/19 08:04:35;;;;;;;11.27;2.80;;;10.20;99.90;;;;;;4944818;29;20047;-79
2023/11/19 08:07:21;;;;;;;14.30;2.85;;;10.20;99.90;;;;;;4932127;29;20035;-79
2023/11/19 08:10:09;;;;;;;12.88;3.17;;;10.20;99.90;;;;;;4926459;29;20118;-79
2023/11/19 08:13:01;;;;;;;13.65;3.55;;;10.30;99.90;;;;;;4932145;29;20391;-80
2023/11/19 08:15:47;;;;;;;18.20;3.75;;;10.30;99.90;;;;;;4944595;28;20336;-80
2023/11/19 08:18:34;;;;;;;17.25;3.92;;;10.40;99.90;;;;;;4947912;28;20089;-79
2023/11/19 08:21:22;;;;;;;15.00;4.07;;;10.50;99.90;;;;;;4927060;29;20032;-79
2023/11/19 08:24:08;;;;;;;;;;;10.50;99.90;;;;;;4922122;29;20051;-79
2023/11/19 08:26:54;;;;;;;17.58;4.70;;;10.70;99.90;;;;;;4914506;29;19911;-79
2023/11/19 08:29:41;;;;;;;16.48;4.53;;;10.70;99.90;;;;;;4927590;29;20066;-79
2023/11/19 08:32:27;;;;;;;19.20;4.57;;;10.90;99.90;;;;;;4933623;28;20050;-79
2023/11/19 08:35:15;;;;;;;15.50;4.38;;;11.00;99.90;;;;;;4931832;28;20740;-79
2023/11/19 08:38:03;;;;;;;16.90;4.10;;;11.10;99.90;;;;;;4944807;29;20046;-79
2023/11/19 08:40:49;;;;;;;24.42;5.25;;;11.20;99.90;;;;;;4932364;29;20464;-79
2023/11/19 08:43:35;;;;;;;18.90;4.00;;;11.30;99.90;;;;;;4931270;29;20068;-79
2023/11/19 08:46:21;;;;;;;25.58;4.25;;;11.30;99.90;;;;;;4929997;28;20043;-79
2023/11/19 08:49:08;;;;;;;18.98;4.47;;;11.40;99.90;;;;;;4958855;28;20030;-79
2023/11/19 08:51:54;;;;;;;23.13;4.95;;;11.50;99.90;;;;;;4913168;29;20050;-79
2023/11/19 08:54:43;;;;;;;23.88;3.95;;;11.60;99.90;;;;;;4924337;29;20044;-79
2023/11/19 08:57:31;;;;;;;25.17;4.68;;;11.60;99.90;;;;;;4937618;28;20030;-79
2023/11/19 09:00:17;;;;;;;23.90;4.72;;;11.60;99.90;;;;;;4964247;28;20035;-79
2023/11/19 09:03:05;;;;;;;21.02;4.85;;;11.70;99.90;;;;;;4964502;28;20027;-79
2023/11/19 09:05:51;;;;;;;23.30;4.28;;;11.70;99.90;;;;;;4932097;29;20406;-79
2023/11/19 09:08:38;;;;;;;28.58;4.90;;;11.70;99.90;;;;;;4957376;29;20118;-79
2023/11/19 09:11:24;;;;;;;25.17;4.40;;;11.70;99.90;;;;;;4918178;29;20050;-79
2023/11/19 09:14:10;;;;;;;21.88;4.25;;;11.70;99.90;;;;;;4938516;29;20488;-79
2023/11/19 09:16:58;;;;;;;23.70;3.92;;;11.70;99.90;;;;;;4944178;29;20066;-79
2023/11/19 09:19:46;;;;;;;28.55;5.10;;;11.70;99.90;;;;;;4930885;29;20039;-79
2023/11/19 09:22:32;;;;;;;20.75;4.47;;;11.70;99.90;;;;;;4920257;29;20090;-79
2023/11/19 09:25:18;;;;;;;21.70;4.47;;;11.70;99.90;;;;;;4924007;29;20662;-79
2023/11/19 09:28:04;;;;;;;28.33;5.68;;;11.70;99.90;;;;;;4916605;29;20093;-78
2023/11/19 09:30:50;;;;;;;21.75;4.82;;;11.70;99.90;;;;;;4941860;28;20034;-79
2023/11/19 09:33:37;;;;;;;22.42;4.22;;;11.70;99.90;;;;;;4929790;29;20035;-78
2023/11/19 09:36:25;;;;;;;21.38;4.45;;;11.70;99.90;;;;;;4938669;29;20048;-78
2023/11/19 09:39:14;;;;;;;19.90;4.82;;;11.70;99.90;;;;;;4924036;29;20031;-78
2023/11/19 09:42:00;;;;;;;20.25;4.53;;;11.80;99.90;;;;;;4935776;28;20042;-79
2023/11/19 09:44:47;;;;;;;23.83;4.78;;;11.80;99.90;;;;;;4934895;29;20043;-78
2023/11/19 09:47:33;;;;;;;20.05;4.53;;;11.90;99.90;;;;;;4913089;29;20048;-79
2023/11/19 09:50:20;;;;;;;18.33;4.80;;;12.00;99.90;;;;;;4930345;29;20035;-78
2023/11/19 09:53:06;;;;;;;26.53;4.23;;;12.10;99.90;;;;;;4935025;28;20078;-78
2023/11/19 09:55:53;;;;;;;23.25;6.03;;;12.00;99.90;;;;;;4930939;28;20113;-77
2023/11/19 09:58:40;;;;;;;25.58;5.53;;;12.10;99.90;;;;;;4937944;28;20074;-77
2023/11/19 10:01:26;;;;;;;21.50;4.95;;;12.20;99.90;;;;;;4943154;29;20035;-77
2023/11/19 10:04:13;;;;;;;24.52;4.55;;;12.30;99.90;;;;;;4927149;29;20498;-79
2023/11/19 10:06:59;;;;;;;21.05;5.22;;;12.40;99.90;;;;;;4938788;29;20484;-79
2023/11/19 10:09:47;;;;;;;22.33;5.32;;;12.60;99.90;;;;;;4928706;29;20413;-79
2023/11/19 10:12:39;;;;;;;22.33;4.90;;;12.60;99.90;;;;;;4952607;28;20069;-79
2023/11/19 10:15:26;;;;;;;22.58;4.25;;;12.70;99.90;;;;;;4940090;28;20184;-78
2023/11/19 10:18:15;;;;;;;22.40;4.00;;;12.90;99.90;;;;;;4898005;29;20062;-78
2023/11/19 10:21:01;;;;;;;25.20;5.10;;;12.80;99.90;;;;;;4921735;28;20054;-78
2023/11/19 10:23:54;;;;;;;24.58;5.10;;;12.90;99.90;;;;;;4943204;29;20354;-78
2023/11/19 10:26:42;;;;;;;21.35;4.55;;;13.00;99.90;;;;;;4905634;29;20066;-78
2023/11/19 10:29:29;;;;;;;23.67;4.28;;;13.20;99.90;;;;;;4930031;29;20090;-79
2023/11/19 10:32:15;;;;;;;25.00;5.67;;;13.40;99.90;;;;;;4903150;28;20039;-79
2023/11/19 10:35:06;;;;;;;25.30;5.07;;;13.60;99.90;;;;;;4940467;29;20282;-79
2023/11/19 10:37:52;;;;;;;23.98;4.93;;;13.50;99.90;;;;;;4916436;29;20044;-78
2023/11/19 10:40:40;;;;;;;26.58;5.25;;;13.30;99.90;;;;;;4928114;29;20087;-78
2023/11/19 10:43:27;;;;;;;30.40;7.60;;;13.20;99.90;;;;;;4930123;29;20047;-78
2023/11/19 10:46:14;;;;;;;23.50;4.97;;;13.10;99.90;;;;;;4929793;29;20047;-78
2023/11/19 10:49:00;;;;;;;33.10;6.07;;;13.00;99.90;;;;;;4935884;29;20095;-79
2023/11/19 10:51:46;;;;;;;28.25;5.75;;;13.10;99.90;;;;;;4915973;29;20050;-78
2023/11/19 10:54:32;;;;;;;25.70;4.95;;;13.30;99.90;;;;;;4929487;29;20051;-77
2023/11/19 10:57:21;;;;;;;27.63;4.85;;;13.20;99.90;;;;;;4907120;29;20093;-78
2023/11/19 11:00:12;;;;;;;25.55;5.30;;;13.30;99.90;;;;;;4928649;28;20368;-78
2023/11/19 11:03:02;;;;;;;23.73;4.47;;;13.10;99.90;;;;;;4938020;28;20039;-78
2023/11/19 11:05:49;;;;;;;21.73;4.28;;;13.00;99.90;;;;;;4918666;28;20078;-78
2023/11/19 11:08:37;;;;;;;19.15;4.82;;;12.90;99.90;;;;;;4930146;29;20039;-78
2023/11/19 11:11:26;;;;;;;22.13;4.55;;;13.10;99.90;;;;;;4917018;29;20391;-79
2023/11/19 11:14:16;;;;;;;22.70;4.28;;;13.60;99.90;;;;;;4924245;29;20043;-78
2023/11/19 11:17:03;;;;;;;13.85;3.67;;;13.80;99.90;;;;;;4957315;28;20238;-78
2023/11/19 11:19:50;;;;;;;19.03;4.37;;;14.10;99.90;;;;;;4927030;29;20047;-79
2023/11/19 11:23:13;;;;;;;18.13;3.30;;;14.50;99.90;;;;;;4914336;29;20288;-78
2023/11/19 11:26:14;;;;;;;16.08;3.45;;;14.60;99.90;;;;;;4931213;29;20055;-79
2023/11/19 11:29:13;;;;;;;16.42;3.65;;;14.70;99.90;;;;;;4936612;29;20102;-78
2023/11/19 11:32:33;;;;;;;15.55;3.67;;;14.80;99.90;;;;;;4947185;29;20049;-79
2023/11/19 11:35:57;;;;;;;20.17;4.28;;;14.70;99.90;;;;;;4954695;29;20404;-79
2023/11/19 11:38:44;;;;;;;16.55;3.85;;;14.50;99.90;;;;;;4949112;29;20043;-79
2023/11/19 11:41:30;;;;;;;16.97;3.97;;;14.60;99.90;;;;;;4920793;29;20067;-79
2023/11/19 11:44:18;;;;;;;17.95;3.85;;;14.80;99.90;;;;;;4916738;29;20288;-79
2023/11/19 11:47:05;;;;;;;24.95;4.60;;;14.50;99.90;;;;;;4948741;28;20118;-78
2023/11/19 11:49:52;;;;;;;22.85;4.30;;;14.40;99.90;;;;;;4930055;29;20043;-79
2023/11/19 11:52:56;;;;;;;22.65;5.35;;;14.60;99.90;;;;;;4917096;29;20546;-79
2023/11/19 11:55:48;;;;;;;20.65;4.13;;;14.80;99.90;;;;;;4948843;29;20040;-79
2023/11/19 11:58:37;;;;;;;26.63;5.43;;;14.90;99.90;;;;;;4945153;29;20058;-79
2023/11/19 12:01:28;;;;;;;24.02;5.47;;;14.80;99.90;;;;;;4933671;29;20040;-79
2023/11/19 12:04:17;;;;;;;23.10;4.55;;;14.80;99.90;;;;;;4933712;29;20075;-80
2023/11/19 12:07:17;;;;;;;24.17;5.65;;;15.00;99.90;;;;;;4942402;29;20039;-79
2023/11/19 12:10:11;;;;;;;24.10;5.00;;;14.90;99.90;;;;;;4945210;29;20043;-79
2023/11/19 12:13:20;;;;;;;21.50;5.78;;;14.90;99.90;;;;;;4933177;29;20039;-79
2023/11/19 12:16:07;;;;;;;23.95;4.53;;;14.90;99.90;;;;;;4927747;28;20588;-80
2023/11/19 12:18:53;;;;;;;19.13;4.25;;;15.10;99.90;;;;;;4958571;28;20042;-79
2023/11/19 12:21:39;;;;;;;26.08;5.95;;;15.00;99.90;;;;;;4914249;29;20066;-79
2023/11/19 12:24:25;;;;;;;21.83;5.07;;;15.10;99.90;;;;;;4910289;29;20052;-79
2023/11/19 12:27:12;;;;;;;27.88;5.43;;;15.20;99.90;;;;;;4899259;29;20043;-80
2023/11/19 12:29:59;;;;;;;17.52;4.32;;;15.00;99.90;;;;;;4904848;29;20048;-79
2023/11/19 12:32:46;;;;;;;27.55;5.05;;;14.70;99.90;;;;;;4918342;29;20122;-80
2023/11/19 12:35:32;;;;;;;24.33;4.63;;;14.40;99.90;;;;;;4900656;29;20040;-80
2023/11/19 12:38:24;;;;;;;25.85;4.10;;;14.10;99.90;;;;;;4939968;29;20052;-80
2023/11/19 12:41:11;;;;;;;27.95;5.07;;;13.80;99.90;;;;;;4907061;29;20035;-78
2023/11/19 12:44:11;;;;;;;24.00;5.75;;;13.60;99.90;;;;;;4919011;29;21758;-79
2023/11/19 12:47:11;;;;;;;23.30;6.25;;;13.50;99.90;;;;;;4938470;29;20202;-78
2023/11/19 12:49:57;;;;;;;30.50;5.72;;;13.40;99.90;;;;;;4901446;29;20506;-79
2023/11/19 12:53:05;;;;;;;25.20;5.38;;;13.40;99.90;;;;;;4899474;29;20778;-78
2023/11/19 12:55:51;;;;;;;25.20;5.20;;;13.50;99.90;;;;;;4908158;29;20545;-78
2023/11/19 12:58:38;;;;;;;22.95;5.97;;;13.50;99.90;;;;;;4906653;29;20036;-78
2023/11/19 13:01:24;;;;;;;27.42;5.10;;;13.40;99.90;;;;;;4907197;29;20040;-79
2023/11/19 13:04:18;;;;;;;24.90;5.93;;;13.40;99.90;;;;;;4921438;29;20039;-78
2023/11/19 13:07:04;;;;;;;25.52;4.68;;;13.40;99.90;;;;;;4918316;29;20055;-78
2023/11/19 13:09:53;;;;;;;32.45;6.03;;;13.30;99.90;;;;;;4944099;29;20042;-78
2023/11/19 13:12:39;;;;;;;31.08;5.20;;;13.30;99.90;;;;;;4932314;29;20050;-79
2023/11/19 13:15:26;;;;;;;24.08;5.03;;;13.20;99.90;;;;;;4921014;29;20511;-79
2023/11/19 13:18:12;;;;;;;22.23;4.70;;;13.10;99.90;;;;;;4922583;29;20032;-79
2023/11/19 13:20:58;;;;;;;30.58;5.32;;;13.10;99.90;;;;;;4928504;29;20035;-79
2023/11/19 13:23:44;;;;;;;27.45;6.07;;;12.90;99.90;;;;;;4920833;29;20051;-79
2023/11/19 13:26:30;;;;;;;26.60;5.60;;;12.90;99.90;;;;;;4912793;29;20035;-79
2023/11/19 13:29:17;;;;;;;23.33;5.00;;;12.80;99.90;;;;;;4920239;29;20044;-79
2023/11/19 13:32:05;;;;;;;37.13;6.45;;;12.80;99.90;;;;;;4928397;29;20034;-79
2023/11/19 13:35:02;;;;;;;30.40;5.32;;;12.70;99.90;;;;;;4944772;29;20051;-79
2023/11/19 13:37:50;;;;;;;30.42;5.78;;;12.70;99.90;;;;;;4925082;29;20043;-79
2023/11/19 13:40:36;;;;;;;23.63;5.47;;;12.60;99.90;;;;;;4930037;29;20042;-80
2023/11/19 13:43:24;;;;;;;25.63;5.15;;;12.60;99.90;;;;;;4902013;28;20043;-79
2023/11/19 13:46:10;;;;;;;22.35;4.63;;;12.60;99.90;;;;;;4934606;29;20126;-79
2023/11/19 13:48:57;;;;;;;32.70;4.55;;;12.60;99.90;;;;;;4937358;29;20035;-79
2023/11/19 13:51:44;;;;;;;21.02;4.10;;;12.60;99.90;;;;;;4936976;28;20122;-79
2023/11/19 13:54:33;;;;;;;22.77;5.05;;;12.50;99.90;;;;;;4938133;29;20472;-79
2023/11/19 13:57:19;;;;;;;27.00;5.13;;;12.50;99.90;;;;;;4937205;29;20054;-79
2023/11/19 14:00:06;;;;;;;24.38;4.15;;;12.50;99.90;;;;;;4921124;29;20043;-79
2023/11/19 14:02:54;;;;;;;20.08;3.92;;;12.40;99.90;;;;;;4949861;28;20511;-80
2023/11/19 14:05:41;;;;;;;23.88;3.80;;;12.40;99.90;;;;;;4966154;28;20078;-79
2023/11/19 14:08:28;;;;;;;24.13;4.47;;;12.30;99.90;;;;;;4912478;29;20224;-79
2023/11/19 14:11:15;;;;;;;18.75;4.00;;;12.40;99.90;;;;;;4946305;28;20039;-79
2023/11/19 14:14:01;;;;;;;19.52;4.47;;;12.30;99.90;;;;;;4944261;28;20042;-79
2023/11/19 14:16:49;;;;;;;23.52;4.65;;;12.30;99.90;;;;;;4949161;28;20045;-79
2023/11/19 14:19:38;;;;;;;20.38;5.20;;;12.30;99.90;;;;;;4929133;29;20035;-79
2023/11/19 14:22:25;;;;;;;22.02;4.15;;;12.20;99.90;;;;;;4942239;28;20051;-79
2023/11/19 14:25:25;;;;;;;24.75;5.82;;;12.20;99.90;;;;;;4941049;28;20053;-79
2023/11/19 14:28:19;;;;;;;20.65;4.20;;;12.20;99.90;;;;;;4928205;28;20194;-79
2023/11/19 14:31:05;;;;;;;28.27;5.25;;;12.10;99.90;;;;;;4922544;28;20081;-79
2023/11/19 14:33:56;;;;;;;25.85;4.85;;;12.20;99.90;;;;;;4916845;28;20039;-80
2023/11/19 14:36:42;;;;;;;21.60;4.30;;;12.10;99.90;;;;;;4905320;29;20039;-80